createdAt,value
2022-09-25T00:07:52.869Z,12.40
2022-09-25T00:19:48.543Z,12.40
2022-09-25T00:25:56.032Z,12.50
2022-09-25T00:31:43.205Z,12.40
2022-09-25T00:37:41.991Z,12.30
2022-09-25T01:01:18.064Z,12.00
2022-09-25T01:13:27.703Z,11.80
2022-09-25T01:30:44.139Z,11.80
2022-09-25T01:42:23.331Z,11.70
2022-09-25T01:47:51.889Z,11.80
2022-09-25T01:53:23.428Z,11.90
2022-09-25T01:59:36.043Z,11.90
2022-09-25T02:11:07.033Z,11.80
2022-09-25T02:16:33.855Z,11.90
2022-09-25T02:28:53.957Z,11.90
2022-09-25T02:40:05.869Z,11.90
2022-09-25T02:45:57.684Z,11.90
2022-09-25T02:57:01.422Z,11.80
2022-09-25T03:07:57.405Z,11.90
2022-09-25T03:13:03.380Z,11.90
2022-09-25T03:29:29.549Z,11.90
2022-09-25T03:35:29.536Z,11.80
2022-09-25T03:40:51.205Z,11.80
2022-09-25T03:46:35.970Z,11.70
2022-09-25T03:52:17.795Z,11.70
2022-09-25T03:58:10.817Z,11.70
2022-09-25T04:05:38.328Z,11.70
2022-09-25T04:09:56.617Z,11.80
2022-09-25T04:21:35.826Z,11.80
2022-09-25T04:27:05.722Z,11.70
2022-09-25T04:33:25.329Z,11.80
2022-09-25T04:45:18.584Z,11.70
2022-09-25T05:01:26.318Z,11.60
2022-09-25T05:06:37.955Z,11.70
2022-09-25T05:11:22.600Z,11.80
2022-09-25T05:16:43.732Z,11.80
2022-09-25T05:22:24.349Z,11.80
2022-09-25T05:27:09.520Z,11.70
2022-09-25T05:37:22.426Z,11.60
2022-09-25T05:42:45.691Z,11.60
2022-09-25T05:48:11.964Z,11.60
2022-09-25T05:54:11.405Z,11.70
2022-09-25T06:05:25.485Z,12.10
2022-09-25T06:12:01.934Z,12.20
2022-09-25T06:17:09.848Z,12.60
2022-09-25T06:23:06.079Z,12.90
2022-09-25T06:45:54.121Z,13.40
2022-09-25T06:51:30.244Z,13.40
2022-09-25T06:57:02.464Z,13.50
2022-09-25T07:08:28.644Z,13.60
2022-09-25T07:14:19.419Z,13.90
2022-09-25T07:20:06.494Z,14.40
2022-09-25T07:25:20.731Z,14.90
2022-09-25T07:30:40.317Z,15.60
2022-09-25T07:36:14.043Z,16.10
2022-09-25T07:41:39.228Z,16.00
2022-09-25T07:47:09.436Z,15.80
2022-09-25T07:53:16.819Z,16.20
2022-09-25T07:58:58.984Z,16.20
2022-09-25T08:04:37.062Z,16.10
2022-09-25T08:10:14.131Z,16.00
2022-09-25T08:21:08.690Z,16.40
2022-09-25T08:26:11.520Z,16.70
2022-09-25T08:31:55.194Z,17.10
2022-09-25T08:37:17.096Z,17.80
2022-09-25T08:42:41.798Z,18.30
2022-09-25T08:48:12.481Z,18.60
2022-09-25T08:54:16.000Z,18.30
2022-09-25T09:00:02.925Z,18.60
2022-09-25T09:05:38.549Z,18.30
2022-09-25T09:27:40.115Z,18.40
2022-09-25T09:32:36.281Z,18.60
2022-09-25T09:37:25.617Z,18.70
2022-09-25T09:42:15.697Z,18.60
2022-09-25T09:47:09.260Z,18.60
2022-09-25T09:51:56.899Z,19.20
2022-09-25T09:56:43.802Z,19.70
2022-09-25T10:01:46.097Z,20.10
2022-09-25T10:06:34.815Z,19.70
2022-09-25T10:11:20.116Z,19.70
2022-09-25T10:16:11.573Z,19.90
2022-09-25T10:21:00.693Z,20.00
2022-09-25T10:25:45.511Z,19.70
2022-09-25T10:30:29.218Z,20.20
2022-09-25T10:35:17.415Z,21.80
2022-09-25T10:40:04.088Z,22.70
2022-09-25T10:44:54.150Z,23.90
2022-09-25T10:50:06.143Z,25.50
2022-09-25T10:54:52.565Z,26.10
2022-09-25T10:59:36.174Z,25.70
2022-09-25T11:04:24.873Z,25.60
2022-09-25T11:09:17.758Z,23.80
2022-09-25T11:14:04.713Z,22.50
2022-09-25T11:18:51.487Z,21.30
2022-09-25T11:23:41.553Z,20.50
2022-09-25T11:28:31.730Z,19.80
2022-09-25T11:33:23.337Z,19.60
2022-09-25T11:38:40.843Z,19.10
2022-09-25T11:43:36.578Z,19.00
2022-09-25T11:48:26.174Z,19.10
2022-09-25T11:53:20.752Z,19.40
2022-09-25T11:58:21.523Z,19.50
2022-09-25T12:03:27.128Z,19.60
2022-09-25T12:08:27.323Z,19.20
2022-09-25T12:13:19.118Z,19.00
2022-09-25T12:18:11.078Z,18.60
2022-09-25T12:23:04.682Z,18.40
2022-09-25T12:27:55.017Z,18.30
2022-09-25T12:32:53.349Z,18.40
2022-09-25T12:37:43.677Z,18.50
2022-09-25T12:42:38.204Z,19.00
2022-09-25T12:47:27.832Z,19.50
2022-09-25T12:52:14.237Z,20.50
2022-09-25T12:57:00.044Z,22.00
2022-09-25T13:01:55.050Z,23.60
2022-09-25T13:06:48.473Z,23.90
2022-09-25T13:11:39.539Z,23.40
2022-09-25T13:16:23.799Z,22.80
2022-09-25T13:21:27.671Z,21.30
2022-09-25T13:26:14.381Z,20.50
2022-09-25T13:31:10.268Z,19.80
2022-09-25T13:36:11.238Z,19.00
2022-09-25T13:40:56.379Z,18.40
2022-09-25T13:45:41.614Z,17.70
2022-09-25T13:50:43.916Z,17.50
2022-09-25T13:55:27.545Z,17.50
2022-09-25T14:00:18.640Z,17.40
2022-09-25T14:05:02.137Z,17.50
2022-09-25T14:09:48.547Z,17.40
2022-09-25T14:14:36.006Z,17.50
2022-09-25T14:19:25.832Z,17.70
2022-09-25T14:24:21.515Z,17.20
2022-09-25T14:29:05.080Z,17.30
2022-09-25T14:34:08.122Z,17.50
2022-09-25T14:39:08.154Z,17.40
2022-09-25T14:44:04.643Z,17.30
2022-09-25T14:48:51.429Z,17.30
2022-09-25T14:53:38.456Z,17.30
2022-09-25T14:58:27.320Z,17.20
2022-09-25T15:03:14.973Z,17.20
2022-09-25T15:08:00.149Z,17.00
2022-09-25T15:12:46.688Z,16.70
2022-09-25T15:17:33.209Z,16.60
2022-09-25T15:22:20.857Z,16.80
2022-09-25T15:27:07.712Z,16.80
2022-09-25T15:31:52.849Z,16.90
2022-09-25T15:36:37.710Z,17.00
2022-09-25T15:41:23.123Z,17.10
2022-09-25T15:46:32.401Z,17.00
2022-09-25T15:51:20.588Z,16.70
2022-09-25T15:56:14.245Z,16.30
2022-09-25T16:01:17.957Z,15.90
2022-09-25T16:06:03.647Z,15.80
2022-09-25T16:10:50.245Z,15.70
2022-09-25T16:15:52.307Z,15.60
2022-09-25T16:20:37.919Z,15.50
2022-09-25T16:25:26.052Z,15.30
2022-09-25T16:30:18.221Z,15.20
2022-09-25T16:35:04.110Z,14.70
2022-09-25T16:39:47.600Z,14.50
2022-09-25T16:44:47.304Z,14.40
2022-09-25T16:49:33.939Z,14.50
2022-09-25T16:54:21.534Z,14.50
2022-09-25T16:59:12.030Z,14.40
2022-09-25T17:04:00.134Z,14.20
2022-09-25T17:08:43.627Z,14.10
2022-09-25T17:13:30.969Z,14.00
2022-09-25T17:18:21.253Z,13.90
2022-09-25T17:23:05.000Z,13.90
2022-09-25T17:27:48.562Z,13.80
2022-09-25T17:32:34.293Z,13.90
2022-09-25T17:37:17.784Z,13.90
2022-09-25T17:42:02.687Z,13.80
2022-09-25T17:46:46.413Z,13.80
2022-09-25T17:51:31.955Z,13.80
2022-09-25T17:56:15.317Z,13.80
2022-09-25T18:01:01.130Z,13.70
2022-09-25T18:05:46.052Z,13.70
2022-09-25T18:10:31.205Z,13.60
2022-09-25T18:15:15.259Z,13.80
2022-09-25T18:20:16.158Z,13.60
2022-09-25T18:24:59.752Z,13.50
2022-09-25T18:29:46.030Z,13.40
2022-09-25T18:34:30.302Z,13.40
2022-09-25T18:39:19.665Z,13.30
2022-09-25T18:44:07.291Z,13.20
2022-09-25T18:48:54.046Z,13.20
2022-09-25T18:53:37.646Z,13.20
2022-09-25T18:58:21.325Z,13.70
2022-09-25T19:03:05.610Z,13.50
2022-09-25T19:07:52.058Z,13.50
2022-09-25T19:12:36.273Z,13.40
2022-09-25T19:17:20.874Z,13.30
2022-09-25T19:22:04.935Z,13.20
2022-09-25T19:26:50.668Z,13.10
2022-09-25T19:31:34.481Z,13.00
2022-09-25T19:36:20.583Z,13.00
2022-09-25T19:41:05.492Z,13.00
2022-09-25T19:45:54.842Z,12.90
2022-09-25T19:50:42.090Z,12.90
2022-09-25T19:55:25.602Z,12.90
2022-09-25T20:00:10.630Z,12.90
2022-09-25T20:04:55.585Z,12.80
2022-09-25T20:09:40.139Z,12.90
2022-09-25T20:14:26.509Z,12.90
2022-09-25T20:19:11.794Z,12.80
2022-09-25T20:23:58.301Z,12.60
2022-09-25T20:28:42.802Z,12.60
2022-09-25T20:33:27.489Z,12.70
2022-09-25T20:38:13.437Z,12.70
2022-09-25T20:42:58.344Z,12.70
2022-09-25T20:47:46.010Z,12.80
2022-09-25T20:52:32.453Z,12.80
2022-09-25T20:57:15.957Z,12.80
2022-09-25T21:02:02.509Z,12.70
2022-09-25T21:06:46.455Z,12.70
2022-09-25T21:11:31.963Z,12.70
2022-09-25T21:16:16.726Z,12.60
2022-09-25T21:21:03.129Z,12.60
2022-09-25T21:25:47.110Z,12.60
2022-09-25T21:30:32.382Z,12.60
2022-09-25T21:35:16.650Z,12.60
2022-09-25T21:40:02.151Z,12.60
2022-09-25T21:44:46.253Z,12.50
2022-09-25T21:49:29.812Z,12.40
2022-09-25T21:54:14.427Z,12.20
2022-09-25T21:59:07.366Z,12.00
2022-09-25T22:03:55.479Z,12.10
2022-09-25T22:08:42.412Z,12.10
2022-09-25T22:13:26.691Z,12.10
2022-09-25T22:18:11.471Z,12.20
2022-09-25T22:22:54.853Z,12.10
2022-09-25T22:27:38.268Z,12.10
2022-09-25T22:32:21.692Z,12.00
2022-09-25T22:37:06.597Z,12.00
2022-09-25T22:41:52.143Z,12.00
2022-09-25T22:46:35.778Z,12.00
2022-09-25T22:51:21.052Z,12.00
2022-09-25T22:56:14.869Z,12.00
2022-09-25T23:00:59.552Z,12.00
2022-09-25T23:05:43.195Z,12.00
2022-09-25T23:10:38.727Z,11.90
2022-09-25T23:15:31.774Z,11.80
2022-09-25T23:20:15.381Z,11.80
2022-09-25T23:24:59.121Z,11.70
2022-09-25T23:29:42.465Z,11.70
2022-09-25T23:34:27.625Z,11.70
2022-09-25T23:39:16.012Z,11.80
2022-09-25T23:44:01.052Z,11.90
2022-09-25T23:48:45.237Z,11.90
2022-09-25T23:53:31.362Z,11.80
2022-09-25T23:58:15.207Z,11.80
